Time;durP1;ratioP1;P1;durP2;ratioP2;P2;SDS_P1;SDS_P2;PMS_P1;PMS_P2;Temp;Humidity;BMP_temperature;BMP_pressure;BME280_temperature;BME280_humidity;BME280_pressure;Samples;Min_cycle;Max_cycle;Signal;HPM_P1;HPM_P2
2022/05/04 00:00:33;;;;;;;5.30;3.70;;;;;;100637.01;;;;107231;1274;65577;-32
2022/05/04 00:03:04;;;;;;;6.40;3.90;;;;;;100636.23;;;;107242;1274;65657;-31
2022/05/04 00:05:33;;;;;;;6.20;4.20;;;;;;100637.85;;;;107281;1274;65711;-32
2022/05/04 00:08:01;;;;;;;6.80;4.00;;;;;;100641.50;;;;107251;1273;66936;-31
2022/05/04 00:10:32;;;;;;;6.00;3.80;;;;;;100643.08;;;;107229;1274;65640;-32
2022/05/04 00:13:00;;;;;;;6.70;3.80;;;;;;100644.52;;;;107276;1274;65573;-30
2022/05/04 00:15:27;;;;;;;6.90;4.00;;;;;;100645.75;;;;107257;1274;65570;-33
2022/05/04 00:17:54;;;;;;;6.80;4.10;;;;;;100650.87;;;;107264;1274;65579;-33
2022/05/04 00:20:24;;;;;;;5.20;3.60;;;;;;100653.50;;;;107248;1274;67234;-35
2022/05/04 00:22:54;;;;;;;6.30;3.60;;;;;;100657.00;;;;107245;1274;65593;-40
2022/05/04 00:25:21;;;;;;;7.80;4.20;;;;;;100658.16;;;;107241;1274;66653;-30
2022/05/04 00:27:52;;;;;;;6.00;3.80;;;;;;100660.21;;;;107232;1274;65501;-31
2022/05/04 00:30:19;;;;;;;6.20;3.80;;;;;;100664.92;;;;107219;1274;65547;-31
2022/05/04 00:32:49;;;;;;;5.90;3.70;;;;;;100666.56;;;;107264;1274;66730;-30
2022/05/04 00:35:16;;;;;;;6.20;4.00;;;;;;100669.21;;;;107205;1274;65681;-30
2022/05/04 00:37:46;;;;;;;5.70;3.90;;;;;;100673.81;;;;107265;1274;65678;-32
2022/05/04 00:40:17;;;;;;;5.70;3.60;;;;;;100673.39;;;;107244;1274;65565;-31
2022/05/04 00:42:44;;;;;;;6.10;3.90;;;;;;100674.71;;;;107232;1274;65672;-32
2022/05/04 00:45:11;;;;;;;6.90;4.30;;;;;;100676.02;;;;107246;1274;66939;-30
2022/05/04 00:47:39;;;;;;;6.60;4.30;;;;;;100679.75;;;;107255;1274;65611;-30
2022/05/04 00:50:08;;;;;;;6.10;4.00;;;;;;100679.02;;;;107270;1274;65690;-30
2022/05/04 00:52:42;;;;;;;7.40;4.20;;;;;;100681.76;;;;107271;1274;65663;-32
2022/05/04 00:55:17;;;;;;;7.30;4.20;;;;;;100683.09;;;;107265;1274;65595;-31
2022/05/04 01:00:34;;;;;;;6.90;3.80;;;;;;100686.20;;;;107258;1274;65796;-30
2022/05/04 01:03:01;;;;;;;5.90;3.80;;;;;;100685.98;;;;107191;1274;65780;-30
2022/05/04 01:05:31;;;;;;;6.70;3.90;;;;;;100688.48;;;;107262;1273;65666;-30
2022/05/04 01:07:58;;;;;;;5.90;4.00;;;;;;100687.44;;;;107229;1274;65582;-31
2022/05/04 01:10:25;;;;;;;6.40;3.90;;;;;;100687.10;;;;107258;1274;67446;-32
2022/05/04 01:12:54;;;;;;;7.20;4.30;;;;;;100685.34;;;;107222;1274;65727;-30
2022/05/04 01:15:23;;;;;;;6.60;3.70;;;;;;100685.69;;;;107292;1274;65610;-29
2022/05/04 01:17:50;;;;;;;5.90;3.70;;;;;;100687.23;;;;107301;1274;65673;-33
2022/05/04 01:20:18;;;;;;;6.00;3.70;;;;;;100687.48;;;;107296;1274;65579;-30
2022/05/04 01:22:49;;;;;;;5.60;3.80;;;;;;100687.11;;;;107285;1274;66933;-32
2022/05/04 01:25:19;;;;;;;7.10;3.80;;;;;;100689.25;;;;107223;1274;65685;-31
2022/05/04 01:27:47;;;;;;;6.50;4.10;;;;;;100689.88;;;;107262;1274;65808;-31
2022/05/04 01:30:14;;;;;;;6.20;3.70;;;;;;100691.31;;;;107243;1274;65794;-31
2022/05/04 01:32:41;;;;;;;6.70;3.90;;;;;;100693.77;;;;107285;1274;65363;-31
2022/05/04 01:35:09;;;;;;;6.60;4.00;;;;;;100693.73;;;;107256;1274;66996;-32
2022/05/04 01:37:39;;;;;;;6.80;3.90;;;;;;100692.05;;;;107227;1274;65780;-30
2022/05/04 01:40:08;;;;;;;6.00;3.90;;;;;;100686.96;;;;107280;1274;65541;-30
2022/05/04 01:42:38;;;;;;;5.90;3.90;;;;;;100685.48;;;;107269;1274;65404;-31
2022/05/04 01:45:09;;;;;;;6.30;3.90;;;;;;100684.27;;;;107249;1274;65689;-37
2022/05/04 01:47:36;;;;;;;6.60;4.20;;;;;;100689.36;;;;107254;1274;66943;-30
2022/05/04 01:50:08;;;;;;;6.90;3.70;;;;;;100698.05;;;;107218;1274;65572;-30
2022/05/04 01:52:35;;;;;;;5.90;3.50;;;;;;100704.27;;;;107268;1274;65676;-32
2022/05/04 01:55:06;;;;;;;6.80;4.20;;;;;;100707.67;;;;107195;1274;65694;-31
2022/05/04 01:57:34;;;;;;;6.90;3.90;;;;;;100709.70;;;;107232;1274;65604;-30
2022/05/04 02:00:01;;;;;;;5.90;3.70;;;;;;100708.02;;;;107179;1274;66809;-31
2022/05/04 02:02:32;;;;;;;5.50;3.60;;;;;;100705.63;;;;107133;1275;65724;-31
2022/05/04 02:04:59;;;;;;;7.00;3.70;;;;;;100703.67;;;;107187;1274;65650;-31
2022/05/04 02:07:30;;;;;;;5.90;3.70;;;;;;100711.98;;;;107224;1274;65438;-32
2022/05/04 02:10:00;;;;;;;6.10;3.50;;;;;;100719.54;;;;107231;1274;65671;-33
2022/05/04 02:12:28;;;;;;;6.20;3.70;;;;;;100721.83;;;;107229;1274;68346;-30
2022/05/04 02:14:55;;;;;;;5.40;3.50;;;;;;100720.14;;;;107135;1274;65777;-30
2022/05/04 02:17:25;;;;;;;5.50;3.70;;;;;;100717.58;;;;107249;1273;65656;-29
2022/05/04 02:19:55;;;;;;;5.70;3.70;;;;;;100717.09;;;;107237;1274;66300;-30
2022/05/04 02:22:26;;;;;;;5.70;3.60;;;;;;100718.28;;;;107269;1274;65579;-30
2022/05/04 02:24:53;;;;;;;5.30;3.40;;;;;;100720.23;;;;107214;1274;65775;-30
2022/05/04 02:27:23;;;;;;;6.00;3.60;;;;;;100722.72;;;;107272;1274;65656;-30
2022/05/04 02:29:50;;;;;;;6.00;3.60;;;;;;100724.69;;;;107153;1274;65542;-29
2022/05/04 02:32:20;;;;;;;6.60;4.10;;;;;;100724.85;;;;107203;1274;65452;-35
2022/05/04 02:40:19;;;;;;;5.60;3.40;;;;;;100725.04;;;;107246;1274;65679;-29
2022/05/04 02:42:47;;;;;;;5.70;3.30;;;;;;100729.86;;;;107176;1274;65528;-32
2022/05/04 02:45:14;;;;;;;6.50;3.90;;;;;;100729.29;;;;107246;1273;65566;-33
2022/05/04 02:47:41;;;;;;;5.80;3.40;;;;;;100735.02;;;;107297;1274;65407;-30
2022/05/04 02:50:09;;;;;;;5.70;3.30;;;;;;100735.59;;;;107250;1274;66059;-40
2022/05/04 02:52:39;;;;;;;5.60;3.80;;;;;;100738.77;;;;107253;1274;66111;-31
2022/05/04 02:55:07;;;;;;;5.70;3.50;;;;;;100742.74;;;;107225;1274;65691;-32
2022/05/04 02:57:37;;;;;;;5.70;3.60;;;;;;100749.36;;;;107248;1274;66477;-30
2022/05/04 03:00:09;;;;;;;5.80;3.40;;;;;;100748.28;;;;107260;1274;65566;-29
2022/05/04 03:02:39;;;;;;;5.30;3.30;;;;;;100740.17;;;;107317;1274;67282;-30
2022/05/04 03:05:08;;;;;;;5.30;2.90;;;;;;100744.42;;;;107240;1274;65570;-31
2022/05/04 03:07:38;;;;;;;6.80;3.30;;;;;;100747.38;;;;107286;1274;65553;-31
2022/05/04 03:10:07;;;;;;;5.40;3.00;;;;;;100749.03;;;;107226;1274;65581;-32
2022/05/04 03:12:37;;;;;;;5.00;3.20;;;;;;100750.23;;;;107314;1274;65426;-30
2022/05/04 03:15:06;;;;;;;4.80;3.30;;;;;;100752.46;;;;107260;1274;67021;-32
2022/05/04 03:17:36;;;;;;;5.50;3.50;;;;;;100752.30;;;;107303;1272;66179;-31
2022/05/04 03:20:05;;;;;;;6.10;3.70;;;;;;100752.59;;;;107226;1274;65680;-31
2022/05/04 03:22:32;;;;;;;5.20;3.30;;;;;;100760.27;;;;107295;1274;65557;-31
2022/05/04 03:25:00;;;;;;;5.80;3.20;;;;;;100764.21;;;;107300;1274;65778;-31
2022/05/04 03:27:30;;;;;;;5.80;3.50;;;;;;100776.26;;;;107269;1274;66987;-31
2022/05/04 03:29:57;;;;;;;5.70;3.40;;;;;;100777.81;;;;107247;1274;65687;-31
2022/05/04 03:32:27;;;;;;;5.40;3.00;;;;;;100779.61;;;;107238;1274;65590;-35
2022/05/04 03:34:58;;;;;;;5.40;3.30;;;;;;100784.95;;;;107236;1274;65848;-30
2022/05/04 03:37:25;;;;;;;5.60;3.40;;;;;;100785.73;;;;107273;1274;65574;-31
2022/05/04 03:39:55;;;;;;;6.50;3.20;;;;;;100786.96;;;;107230;1274;67261;-29
2022/05/04 03:42:22;;;;;;;5.10;3.30;;;;;;100784.45;;;;107275;1274;65652;-31
2022/05/04 03:44:52;;;;;;;5.60;3.20;;;;;;100784.79;;;;107241;1274;65542;-31
2022/05/04 03:47:19;;;;;;;4.90;3.30;;;;;;100786.85;;;;107220;1274;65771;-29
2022/05/04 03:49:47;;;;;;;5.50;3.20;;;;;;100790.74;;;;107264;1274;65627;-29
2022/05/04 03:52:14;;;;;;;5.30;3.30;;;;;;100791.08;;;;107301;1274;65732;-29
2022/05/04 03:54:41;;;;;;;4.90;3.00;;;;;;100795.92;;;;107219;1274;65550;-31
2022/05/04 03:57:11;;;;;;;4.90;3.10;;;;;;100800.08;;;;107274;1274;65669;-31
2022/05/04 03:59:41;;;;;;;5.10;3.10;;;;;;100799.02;;;;107242;1274;65634;-31
2022/05/04 04:02:08;;;;;;;5.20;3.10;;;;;;100798.73;;;;107238;1274;65547;-30
2022/05/04 04:04:38;;;;;;;5.20;3.20;;;;;;100801.95;;;;107257;1274;65582;-30
2022/05/04 04:07:06;;;;;;;5.70;3.40;;;;;;100803.27;;;;107224;1272;65694;-38
2022/05/04 04:09:35;;;;;;;4.80;3.20;;;;;;100809.75;;;;107267;1274;65669;-30
2022/05/04 04:12:04;;;;;;;5.70;3.30;;;;;;100811.49;;;;107255;1274;65780;-30
2022/05/04 04:14:33;;;;;;;5.20;3.00;;;;;;100816.04;;;;107296;1274;65558;-29
2022/05/04 04:17:04;;;;;;;5.20;3.00;;;;;;100821.39;;;;104969;1273;3054972;-30
2022/05/04 04:19:31;;;;;;;4.50;2.90;;;;;;100815.01;;;;107130;1273;65887;-30
2022/05/04 04:21:58;;;;;;;4.60;2.90;;;;;;100815.18;;;;107257;1274;65541;-32
2022/05/04 04:24:25;;;;;;;4.70;2.80;;;;;;100820.48;;;;107244;1274;65589;-32
2022/05/04 04:26:55;;;;;;;5.20;3.10;;;;;;100827.41;;;;107271;1274;65593;-29
2022/05/04 04:29:23;;;;;;;5.10;3.10;;;;;;100831.13;;;;107277;1274;67071;-30
2022/05/04 04:31:54;;;;;;;5.00;3.10;;;;;;100832.65;;;;107228;1274;65575;-30
2022/05/04 04:34:25;;;;;;;4.80;2.90;;;;;;100835.61;;;;107260;1274;65679;-34
2022/05/04 04:36:55;;;;;;;5.50;3.30;;;;;;100834.02;;;;107221;1274;65664;-30
2022/05/04 04:39:22;;;;;;;4.60;2.90;;;;;;100833.37;;;;107265;1274;65617;-32
2022/05/04 04:41:53;;;;;;;5.20;3.10;;;;;;100830.63;;;;107266;1274;65801;-31
2022/05/04 04:44:24;;;;;;;4.80;2.60;;;;;;100831.59;;;;107209;1274;65645;-30
2022/05/04 04:46:54;;;;;;;5.00;2.70;;;;;;100837.70;;;;107238;1273;65660;-31
2022/05/04 04:49:25;;;;;;;4.80;2.70;;;;;;100848.69;;;;107212;1274;65687;-32
2022/05/04 04:51:52;;;;;;;4.90;2.60;;;;;;100855.04;;;;107167;1274;65693;-40
2022/05/04 04:54:22;;;;;;;5.10;2.80;;;;;;100854.71;;;;107256;1274;66993;-30
2022/05/04 04:56:49;;;;;;;5.50;2.90;;;;;;100853.52;;;;107242;1274;65574;-30
2022/05/04 04:59:19;;;;;;;5.50;2.70;;;;;;100850.02;;;;107242;1274;65588;-30
2022/05/04 05:01:49;;;;;;;4.60;2.80;;;;;;100850.67;;;;107248;1274;65578;-31
2022/05/04 05:04:19;;;;;;;5.60;3.10;;;;;;100855.55;;;;107240;1273;65639;-31
2022/05/04 05:06:49;;;;;;;4.60;2.80;;;;;;100860.02;;;;107215;1274;65793;-31
2022/05/04 05:09:16;;;;;;;5.50;2.90;;;;;;100861.26;;;;107185;1274;65663;-31
2022/05/04 05:11:47;;;;;;;4.80;2.50;;;;;;100860.52;;;;107167;1274;65743;-32
2022/05/04 05:17:05;;;;;;;4.90;2.60;;;;;;100867.55;;;;107227;1274;65692;-32
2022/05/04 05:19:32;;;;;;;5.10;2.50;;;;;;100872.36;;;;107248;1274;67308;-31
2022/05/04 05:21:59;;;;;;;4.40;2.50;;;;;;100872.77;;;;107262;1274;65567;-36
2022/05/04 05:24:26;;;;;;;4.80;2.70;;;;;;100874.91;;;;107236;1274;65690;-31
2022/05/04 05:26:57;;;;;;;4.80;2.60;;;;;;100872.80;;;;107239;1274;65681;-30
2022/05/04 05:29:25;;;;;;;6.70;2.70;;;;;;100871.25;;;;107274;1271;65668;-31
2022/05/04 05:31:55;;;;;;;5.90;2.60;;;;;;100868.65;;;;107275;1274;67051;-30
2022/05/04 05:34:23;;;;;;;4.70;2.40;;;;;;100867.33;;;;107254;1274;65640;-30
2022/05/04 05:36:53;;;;;;;5.50;2.70;;;;;;100868.30;;;;107227;1274;66236;-30
2022/05/04 05:39:23;;;;;;;5.70;2.30;;;;;;100874.64;;;;107198;1274;65602;-32
2022/05/04 05:41:54;;;;;;;6.90;2.50;;;;;;100874.41;;;;107279;1274;65613;-31
2022/05/04 05:44:24;;;;;;;5.60;2.60;;;;;;100872.52;;;;107229;1274;67302;-30
2022/05/04 05:46:55;;;;;;;4.40;2.40;;;;;;100869.77;;;;107224;1274;65643;-31
2022/05/04 05:49:22;;;;;;;7.30;2.70;;;;;;100872.09;;;;107216;1274;65627;-30
2022/05/04 05:51:52;;;;;;;5.30;2.60;;;;;;100870.77;;;;107212;1274;65804;-30
2022/05/04 05:54:22;;;;;;;6.50;2.60;;;;;;100874.51;;;;107239;1274;65649;-29
2022/05/04 05:56:52;;;;;;;6.80;2.70;;;;;;100875.11;;;;107265;1274;67003;-34
2022/05/04 05:59:22;;;;;;;7.10;2.50;;;;;;100872.08;;;;107254;1274;65691;-31
2022/05/04 06:01:53;;;;;;;5.60;2.50;;;;;;100870.17;;;;107243;1274;65584;-38
2022/05/04 06:04:20;;;;;;;7.50;3.10;;;;;;100868.74;;;;107268;1274;65677;-31
2022/05/04 06:06:47;;;;;;;6.50;2.60;;;;;;100868.99;;;;107285;1274;65682;-33
2022/05/04 06:09:15;;;;;;;7.40;2.40;;;;;;100869.29;;;;107259;1274;65629;-31
2022/05/04 06:11:42;;;;;;;7.20;2.60;;;;;;100872.17;;;;107257;1274;65694;-29
2022/05/04 06:14:12;;;;;;;7.20;2.70;;;;;;100875.85;;;;107242;1274;65550;-28
2022/05/04 06:16:40;;;;;;;6.10;2.60;;;;;;100872.27;;;;107272;1274;65687;-40
2022/05/04 06:19:11;;;;;;;6.10;2.80;;;;;;100867.33;;;;107264;1274;65684;-37
2022/05/04 06:21:39;;;;;;;6.00;2.60;;;;;;100870.34;;;;107202;1274;65570;-31
2022/05/04 06:24:09;;;;;;;6.80;2.60;;;;;;100873.85;;;;107245;1274;65687;-29
2022/05/04 06:26:37;;;;;;;7.10;2.50;;;;;;100877.57;;;;107238;1274;65582;-36
2022/05/04 06:29:04;;;;;;;9.60;2.60;;;;;;100878.96;;;;107231;1274;65684;-31
2022/05/04 06:34:24;;;;;;;6.60;2.80;;;;;;100881.42;;;;107261;1274;67986;-31
2022/05/04 06:36:55;;;;;;;6.80;2.80;;;;;;100882.73;;;;107221;1274;65535;-30
2022/05/04 06:39:26;;;;;;;6.40;2.70;;;;;;100888.04;;;;107270;1274;66683;-31
2022/05/04 06:41:53;;;;;;;6.60;2.30;;;;;;100890.42;;;;107215;1274;65562;-31
2022/05/04 06:44:23;;;;;;;6.10;2.50;;;;;;100887.73;;;;107252;1274;65698;-32
2022/05/04 06:46:50;;;;;;;6.90;2.50;;;;;;100888.80;;;;107234;1274;65956;-31
2022/05/04 06:49:17;;;;;;;5.10;2.50;;;;;;100887.30;;;;107215;1274;65663;-42
2022/05/04 06:51:45;;;;;;;6.00;2.30;;;;;;100891.85;;;;107243;1274;65649;-34
2022/05/04 06:54:12;;;;;;;6.50;2.60;;;;;;100895.61;;;;107244;1274;65714;-32
2022/05/04 06:56:42;;;;;;;7.40;2.50;;;;;;100897.92;;;;107294;1274;65622;-33
2022/05/04 06:59:10;;;;;;;5.60;2.60;;;;;;100894.19;;;;107253;1274;66697;-38
2022/05/04 07:01:41;;;;;;;4.90;2.40;;;;;;100896.34;;;;107238;1274;65556;-39
2022/05/04 07:04:11;;;;;;;5.40;2.50;;;;;;100898.31;;;;107251;1274;65668;-33
2022/05/04 07:06:38;;;;;;;6.00;2.60;;;;;;100897.18;;;;107247;1274;65570;-30
2022/05/04 07:09:05;;;;;;;5.70;2.40;;;;;;100895.04;;;;107269;1273;65570;-28
2022/05/04 07:11:36;;;;;;;5.20;2.50;;;;;;100893.94;;;;107243;1274;65727;-28
2022/05/04 07:14:03;;;;;;;5.70;2.40;;;;;;100900.91;;;;107173;1277;65708;-33
2022/05/04 07:16:30;;;;;;;9.70;2.60;;;;;;100903.44;;;;107237;1274;65585;-29
2022/05/04 07:18:58;;;;;;;6.50;2.70;;;;;;100903.05;;;;107220;1274;65762;-30
2022/05/04 07:21:28;;;;;;;7.10;2.60;;;;;;100902.10;;;;107257;1274;65570;-32
2022/05/04 07:23:56;;;;;;;6.30;2.50;;;;;;100906.64;;;;107237;1274;68527;-31
2022/05/04 07:26:26;;;;;;;6.50;2.70;;;;;;100904.46;;;;107232;1274;65588;-30
2022/05/04 07:28:56;;;;;;;9.50;2.90;;;;;;100907.63;;;;107226;1274;65695;-29
2022/05/04 07:31:23;;;;;;;5.90;2.50;;;;;;100912.59;;;;107214;1274;65691;-27
2022/05/04 07:33:50;;;;;;;5.40;2.50;;;;;;100912.42;;;;107280;1274;65553;-29
2022/05/04 07:36:21;;;;;;;7.60;2.20;;;;;;100913.52;;;;107255;1274;65879;-29
2022/05/04 07:38:48;;;;;;;6.30;2.50;;;;;;100915.54;;;;107244;1273;65562;-32
2022/05/04 07:44:01;;;;;;;7.00;2.50;;;;;;100918.31;;;;107291;1274;65547;-31
2022/05/04 07:46:28;;;;;;;4.90;2.40;;;;;;100919.98;;;;107254;1274;65696;-33
2022/05/04 07:48:58;;;;;;;6.40;2.30;;;;;;100920.49;;;;107248;1274;66939;-31
2022/05/04 07:51:26;;;;;;;6.10;2.20;;;;;;100922.49;;;;107213;1274;65679;-33
2022/05/04 07:53:56;;;;;;;5.50;2.00;;;;;;100931.00;;;;107255;1274;65583;-31
2022/05/04 07:56:23;;;;;;;5.00;2.20;;;;;;100925.40;;;;107247;1274;65694;-32
2022/05/04 07:58:50;;;;;;;5.40;2.20;;;;;;100928.16;;;;107234;1274;65583;-30
2022/05/04 08:04:18;;;;;;;5.30;2.20;;;;;;100924.65;;;;107221;1274;65580;-31
2022/05/04 08:06:48;;;;;;;5.70;2.20;;;;;;100928.71;;;;107212;1274;65672;-30
2022/05/04 08:09:16;;;;;;;8.10;2.40;;;;;;100929.73;;;;107236;1273;65658;-28
2022/05/04 08:11:47;;;;;;;5.00;2.00;;;;;;100930.04;;;;107269;1274;65732;-28
2022/05/04 08:14:16;;;;;;;6.00;2.20;;;;;;100931.09;;;;107234;1274;66763;-28
2022/05/04 08:16:46;;;;;;;4.50;2.10;;;;;;100931.38;;;;107171;1274;65658;-28
2022/05/04 08:19:14;;;;;;;5.30;2.20;;;;;;100932.80;;;;107260;1274;65773;-27
2022/05/04 08:21:45;;;;;;;5.70;2.10;;;;;;100929.89;;;;107222;1274;65534;-26
2022/05/04 08:24:12;;;;;;;5.60;2.10;;;;;;100926.58;;;;107241;1274;65676;-32
2022/05/04 08:26:42;;;;;;;7.20;2.20;;;;;;100923.70;;;;107255;1274;66067;-32
2022/05/04 08:29:12;;;;;;;5.00;2.00;;;;;;100926.10;;;;107252;1274;65585;-30
2022/05/04 08:31:43;;;;;;;5.70;2.30;;;;;;100927.17;;;;107239;1274;65538;-31
2022/05/04 08:34:10;;;;;;;7.40;2.10;;;;;;100926.79;;;;107237;1274;65563;-30
2022/05/04 08:36:38;;;;;;;5.30;1.90;;;;;;100922.02;;;;107239;1274;65701;-29
2022/05/04 08:39:07;;;;;;;5.10;1.80;;;;;;100922.79;;;;107273;1274;66973;-29
2022/05/04 08:41:40;;;;;;;6.30;2.10;;;;;;100928.95;;;;107234;1274;65567;-29
2022/05/04 08:44:09;;;;;;;3.90;1.90;;;;;;100926.66;;;;107248;1272;65677;-29
2022/05/04 08:46:42;;;;;;;5.40;2.20;;;;;;100932.13;;;;107255;1275;65691;-30
2022/05/04 08:49:16;;;;;;;5.90;1.80;;;;;;100937.24;;;;107267;1274;65659;-34
2022/05/04 08:51:48;;;;;;;4.40;2.00;;;;;;100938.02;;;;107242;1274;66938;-34
2022/05/04 08:54:19;;;;;;;4.70;1.70;;;;;;100943.54;;;;107222;1274;65550;-30
2022/05/04 08:56:52;;;;;;;5.10;2.00;;;;;;100940.77;;;;107258;1274;65652;-36
2022/05/04 08:59:19;;;;;;;;;;;;;;100938.54;;;;107240;1274;65556;-34
2022/05/04 09:01:49;;;;;;;6.70;2.60;;;;;;100942.10;;;;107264;1274;65653;-35
2022/05/04 09:04:16;;;;;;;6.00;2.40;;;;;;100942.11;;;;107241;1274;67239;-28
2022/05/04 09:06:48;;;;;;;5.20;2.00;;;;;;100940.66;;;;107236;1274;65677;-29
2022/05/04 09:09:16;;;;;;;5.70;2.10;;;;;;100940.11;;;;107239;1274;65528;-29
2022/05/04 09:11:46;;;;;;;5.10;2.00;;;;;;100936.54;;;;107254;1274;65704;-30
2022/05/04 09:14:20;;;;;;;4.40;2.10;;;;;;100936.48;;;;107290;1274;65662;-33
2022/05/04 09:16:50;;;;;;;5.30;2.10;;;;;;100933.02;;;;107255;1274;67261;-30
2022/05/04 09:19:19;;;;;;;4.60;2.00;;;;;;100930.33;;;;107253;1274;66125;-29
2022/05/04 09:21:52;;;;;;;5.60;2.00;;;;;;100931.64;;;;107273;1274;65678;-32
2022/05/04 09:24:32;;;;;;;6.70;2.10;;;;;;100931.78;;;;107240;1274;65661;-37
2022/05/04 09:26:59;;;;;;;5.90;2.10;;;;;;100931.98;;;;107249;1274;65573;-30
2022/05/04 09:29:37;;;;;;;5.20;1.90;;;;;;100931.92;;;;107239;1274;66942;-30
2022/05/04 09:32:15;;;;;;;5.40;2.00;;;;;;100934.11;;;;107240;1274;65576;-30
2022/05/04 09:34:46;;;;;;;5.20;1.70;;;;;;100933.65;;;;107261;1274;65682;-29
2022/05/04 09:45:37;;;;;;;4.50;1.70;;;;;;100933.25;;;;107209;1274;65791;-28
2022/05/04 09:48:06;;;;;;;6.80;1.90;;;;;;100929.81;;;;107256;1274;65731;-33
2022/05/04 09:50:40;;;;;;;4.80;2.00;;;;;;100923.70;;;;107256;1274;65564;-33
2022/05/04 09:53:07;;;;;;;5.30;1.90;;;;;;100921.80;;;;107304;1274;65528;-34
2022/05/04 09:55:35;;;;;;;4.20;1.90;;;;;;100923.49;;;;107263;1274;66882;-30
2022/05/04 09:58:03;;;;;;;4.40;1.80;;;;;;100921.67;;;;107237;1274;65691;-28
2022/05/04 10:00:31;;;;;;;4.20;1.90;;;;;;100924.23;;;;107240;1274;66612;-29
2022/05/04 10:02:58;;;;;;;4.80;1.60;;;;;;100919.08;;;;107225;1274;66414;-29
2022/05/04 10:05:29;;;;;;;4.80;1.70;;;;;;100922.67;;;;107263;1274;65646;-30
2022/05/04 10:07:56;;;;;;;5.50;2.00;;;;;;100927.09;;;;107247;1274;67384;-29
2022/05/04 10:10:25;;;;;;;5.40;2.00;;;;;;100923.98;;;;107242;1274;65576;-32
2022/05/04 10:12:56;;;;;;;4.90;1.90;;;;;;100923.12;;;;107250;1274;65688;-32
2022/05/04 10:15:25;;;;;;;5.40;1.70;;;;;;100920.44;;;;107210;1274;65586;-30
2022/05/04 10:18:14;;;;;;;4.50;1.70;;;;;;100926.58;;;;107232;1274;65666;-28
2022/05/04 10:20:49;;;;;;;4.80;1.90;;;;;;100920.11;;;;107241;1274;68234;-28
2022/05/04 10:23:29;;;;;;;6.60;2.10;;;;;;100919.73;;;;107223;1274;65704;-28
2022/05/04 10:25:58;;;;;;;4.80;1.70;;;;;;100917.17;;;;107266;1274;65589;-32
2022/05/04 10:28:25;;;;;;;4.60;1.70;;;;;;100917.83;;;;107210;1274;65527;-31
2022/05/04 10:30:57;;;;;;;4.60;1.70;;;;;;100916.20;;;;107236;1274;65681;-35
2022/05/04 10:33:32;;;;;;;4.80;1.80;;;;;;100913.98;;;;107246;1274;66951;-32
2022/05/04 10:36:30;;;;;;;3.90;1.50;;;;;;100904.73;;;;107223;1274;66303;-31
2022/05/04 10:39:02;;;;;;;4.20;1.80;;;;;;100892.58;;;;107235;1274;65562;-30
2022/05/04 10:41:37;;;;;;;4.80;1.90;;;;;;100894.39;;;;107246;1274;65741;-32
2022/05/04 10:44:15;;;;;;;8.30;1.90;;;;;;100889.69;;;;107278;1274;65649;-28
2022/05/04 10:46:49;;;;;;;4.30;1.70;;;;;;100892.56;;;;107160;1274;68375;-28
2022/05/04 10:49:17;;;;;;;4.70;1.50;;;;;;100894.48;;;;107202;1274;65580;-30
2022/05/04 10:51:47;;;;;;;4.70;2.00;;;;;;100898.32;;;;107214;1274;65528;-30
2022/05/04 10:54:18;;;;;;;4.20;1.60;;;;;;100901.70;;;;107133;1274;65678;-31
2022/05/04 10:56:48;;;;;;;5.40;1.80;;;;;;100892.91;;;;107207;1274;65723;-30
2022/05/04 10:59:31;;;;;;;3.90;1.70;;;;;;100888.52;;;;107178;1274;67282;-30
2022/05/04 11:02:04;;;;;;;3.80;1.60;;;;;;100885.77;;;;107106;1277;65602;-31
2022/05/04 11:04:35;;;;;;;4.80;1.70;;;;;;100883.20;;;;107179;1274;65551;-30
2022/05/04 11:07:06;;;;;;;4.30;1.80;;;;;;100886.39;;;;107192;1274;65679;-29
2022/05/04 11:09:39;;;;;;;3.80;1.60;;;;;;100885.96;;;;107043;1275;65588;-29
2022/05/04 11:12:12;;;;;;;3.80;2.10;;;;;;100884.52;;;;107183;1273;68244;-29
2022/05/04 11:14:42;;;;;;;5.20;1.80;;;;;;100885.27;;;;107174;1274;65694;-30
2022/05/04 11:17:15;;;;;;;4.30;1.60;;;;;;100883.58;;;;107140;1274;65567;-29
2022/05/04 11:19:47;;;;;;;4.10;1.30;;;;;;100878.52;;;;107119;1277;65608;-27
2022/05/04 11:22:19;;;;;;;3.20;1.40;;;;;;100878.13;;;;107228;1274;65609;-27
2022/05/04 11:24:48;;;;;;;5.00;1.70;;;;;;100881.35;;;;107166;1274;67327;-27
2022/05/04 11:27:16;;;;;;;3.90;1.50;;;;;;100876.11;;;;107208;1274;65652;-31
2022/05/04 11:29:44;;;;;;;4.80;1.60;;;;;;100875.70;;;;107231;1274;65690;-29
2022/05/04 11:32:17;;;;;;;4.60;2.50;;;;;;100876.17;;;;107202;1274;65651;-32
2022/05/04 11:34:45;;;;;;;3.80;1.30;;;;;;100876.78;;;;107250;1274;65676;-32
2022/05/04 11:37:12;;;;;;;3.80;1.40;;;;;;100876.79;;;;107168;1275;66089;-32
2022/05/04 11:39:40;;;;;;;3.80;1.50;;;;;;100878.52;;;;107208;1274;65586;-32
2022/05/04 11:42:08;;;;;;;4.30;1.40;;;;;;100876.09;;;;107189;1274;65782;-31
2022/05/04 11:44:39;;;;;;;3.30;1.50;;;;;;100872.30;;;;107161;1274;65618;-31
2022/05/04 11:47:08;;;;;;;4.80;1.40;;;;;;100873.35;;;;107196;1274;65566;-31
2022/05/04 11:49:36;;;;;;;3.50;1.40;;;;;;100874.78;;;;107226;1274;65783;-29
2022/05/04 11:52:04;;;;;;;3.00;1.40;;;;;;100876.58;;;;107207;1274;65591;-29
2022/05/04 11:54:33;;;;;;;3.00;1.10;;;;;;100874.34;;;;107189;1275;65663;-28
2022/05/04 11:57:00;;;;;;;5.40;1.50;;;;;;100868.66;;;;107263;1274;66333;-27
2022/05/04 11:59:30;;;;;;;4.00;1.60;;;;;;100866.84;;;;107236;1274;65634;-27
2022/05/04 12:01:59;;;;;;;3.60;1.40;;;;;;100866.30;;;;107143;1277;68655;-30
2022/05/04 12:04:27;;;;;;;4.10;1.60;;;;;;100861.29;;;;107218;1274;65565;-27
2022/05/04 12:06:57;;;;;;;3.60;1.50;;;;;;100860.65;;;;107257;1274;66012;-33
2022/05/04 12:09:24;;;;;;;4.00;1.60;;;;;;100859.00;;;;107154;1274;65740;-33
2022/05/04 12:11:52;;;;;;;3.30;1.50;;;;;;100859.05;;;;107181;1275;65594;-31
2022/05/04 12:14:20;;;;;;;5.00;1.40;;;;;;100856.41;;;;107150;1274;66958;-31
2022/05/04 12:16:47;;;;;;;4.00;1.60;;;;;;100857.95;;;;107031;1274;295714;-31
2022/05/04 12:19:18;;;;;;;3.40;1.60;;;;;;100854.27;;;;107204;1274;65576;-33
2022/05/04 12:21:46;;;;;;;3.60;1.20;;;;;;100852.59;;;;107174;1274;65726;-32
2022/05/04 12:24:14;;;;;;;3.40;1.30;;;;;;100852.75;;;;107159;1274;65640;-33
2022/05/04 12:26:42;;;;;;;3.40;1.30;;;;;;100852.61;;;;107153;1274;66983;-28
2022/05/04 12:34:45;;;;;;;3.70;1.40;;;;;;100853.82;;;;107168;1274;65669;-28
2022/05/04 12:37:14;;;;;;;4.10;1.50;;;;;;100845.66;;;;107143;1275;65620;-29
2022/05/04 12:39:43;;;;;;;4.40;1.60;;;;;;100844.96;;;;107226;1274;65665;-28
2022/05/04 12:42:14;;;;;;;4.80;1.70;;;;;;100842.30;;;;107227;1274;65590;-30
2022/05/04 12:44:52;;;;;;;3.70;1.60;;;;;;100839.73;;;;107117;1274;65560;-35
2022/05/04 12:47:21;;;;;;;5.00;1.50;;;;;;100835.46;;;;107230;1274;65742;-32
2022/05/04 12:49:49;;;;;;;3.30;1.50;;;;;;100834.66;;;;107193;1274;66125;-32
2022/05/04 12:52:17;;;;;;;3.50;1.40;;;;;;100830.66;;;;107158;1275;67018;-26
2022/05/04 12:54:45;;;;;;;5.30;1.60;;;;;;100827.81;;;;107211;1274;65548;-29
2022/05/04 12:57:12;;;;;;;4.00;1.70;;;;;;100825.65;;;;107157;1274;65951;-29
2022/05/04 12:59:40;;;;;;;4.20;1.50;;;;;;100825.77;;;;107218;1274;65541;-31
2022/05/04 13:02:07;;;;;;;4.00;1.70;;;;;;100824.84;;;;107216;1274;65726;-28
2022/05/04 13:04:34;;;;;;;4.30;1.30;;;;;;100821.48;;;;107160;1274;66702;-31
2022/05/04 13:07:01;;;;;;;4.10;1.50;;;;;;100815.80;;;;107218;1274;66241;-28
2022/05/04 13:09:28;;;;;;;4.10;1.70;;;;;;100818.27;;;;107230;1274;65573;-27
2022/05/04 13:11:55;;;;;;;4.70;1.80;;;;;;100817.76;;;;107202;1274;65717;-27
2022/05/04 13:14:23;;;;;;;3.90;1.70;;;;;;100814.02;;;;107239;1274;65699;-28
2022/05/04 13:16:51;;;;;;;3.80;1.60;;;;;;100812.06;;;;107215;1274;66951;-28
2022/05/04 13:19:18;;;;;;;2.90;1.40;;;;;;100813.99;;;;107208;1274;65652;-30
2022/05/04 13:21:46;;;;;;;3.70;1.40;;;;;;100814.40;;;;107148;1274;65699;-34
2022/05/04 13:24:13;;;;;;;5.00;1.60;;;;;;100815.63;;;;107218;1274;65710;-32
2022/05/04 13:26:40;;;;;;;4.50;1.90;;;;;;100813.95;;;;107226;1274;65563;-33
2022/05/04 13:29:07;;;;;;;4.00;1.60;;;;;;100812.08;;;;107164;1274;67081;-31
2022/05/04 13:31:35;;;;;;;5.50;1.60;;;;;;100812.84;;;;107225;1274;65672;-30